createdAt,value
2022-11-10T00:02:09.667Z,76.47
2022-11-10T00:04:36.024Z,76.58
2022-11-10T00:07:02.361Z,76.60
2022-11-10T00:09:28.675Z,76.47
2022-11-10T00:11:55.046Z,76.47
2022-11-10T00:14:21.451Z,76.53
2022-11-10T00:16:47.755Z,76.49
2022-11-10T00:19:14.444Z,76.00
2022-11-10T00:21:40.782Z,75.85
2022-11-10T00:24:07.143Z,75.98
2022-11-10T00:26:33.477Z,76.12
2022-11-10T00:28:59.831Z,75.96
2022-11-10T00:31:26.162Z,76.10
2022-11-10T00:33:52.506Z,76.06
2022-11-10T00:36:18.877Z,76.24
2022-11-10T00:38:45.216Z,76.67
2022-11-10T00:41:11.537Z,76.99
2022-11-10T00:43:37.876Z,77.08
2022-11-10T00:46:04.218Z,76.93
2022-11-10T00:48:30.541Z,77.32
2022-11-10T00:50:56.862Z,77.18
2022-11-10T00:53:23.583Z,77.00
2022-11-10T00:55:49.518Z,76.85
2022-11-10T00:58:15.884Z,76.74
2022-11-10T01:00:42.283Z,76.89
2022-11-10T01:03:08.595Z,76.92
2022-11-10T01:05:34.973Z,77.03
2022-11-10T01:08:01.328Z,76.94
2022-11-10T01:10:27.642Z,76.88
2022-11-10T01:12:54.009Z,76.92
2022-11-10T01:15:24.510Z,77.33
2022-11-10T01:17:46.670Z,77.27
2022-11-10T01:20:12.991Z,77.40
2022-11-10T01:22:41.434Z,76.81
2022-11-10T01:25:07.751Z,77.01
2022-11-10T01:27:34.174Z,76.46
2022-11-10T01:30:00.497Z,76.19
2022-11-10T01:32:26.821Z,76.01
2022-11-10T01:34:53.187Z,75.60
2022-11-10T01:37:19.512Z,75.34
2022-11-10T01:39:45.832Z,75.77
2022-11-10T01:42:12.184Z,75.96
2022-11-10T01:44:38.498Z,76.11
2022-11-10T01:47:04.940Z,76.30
2022-11-10T01:49:31.260Z,76.13
2022-11-10T01:51:57.620Z,76.13
2022-11-10T01:54:23.958Z,75.54
2022-11-10T01:56:50.274Z,75.49
2022-11-10T01:59:16.627Z,75.59
2022-11-10T02:01:42.953Z,75.82
2022-11-10T02:04:09.302Z,75.49
2022-11-10T02:06:35.727Z,75.55
2022-11-10T02:09:02.002Z,75.18
2022-11-10T02:11:28.363Z,75.00
2022-11-10T02:13:54.707Z,75.48
2022-11-10T02:16:21.054Z,75.28
2022-11-10T02:18:47.364Z,75.11
2022-11-10T02:21:13.727Z,75.53
2022-11-10T02:23:40.044Z,75.18
2022-11-10T02:26:06.429Z,74.85
2022-11-10T02:28:32.868Z,75.20
2022-11-10T02:30:59.138Z,75.78
2022-11-10T02:33:25.494Z,76.06
2022-11-10T02:35:51.969Z,76.01
2022-11-10T02:38:18.300Z,75.99
2022-11-10T02:40:44.630Z,75.82
2022-11-10T02:43:11.043Z,75.78
2022-11-10T02:45:37.333Z,75.94
2022-11-10T02:48:03.675Z,75.89
2022-11-10T02:50:30.054Z,75.90
2022-11-10T02:52:56.456Z,76.00
2022-11-10T02:55:22.745Z,76.12
2022-11-10T02:57:49.094Z,76.25
2022-11-10T03:00:15.456Z,76.29
2022-11-10T03:02:41.750Z,76.62
2022-11-10T03:05:08.074Z,76.86
2022-11-10T03:07:34.427Z,76.55
2022-11-10T03:10:00.774Z,76.75
2022-11-10T03:12:27.089Z,76.68
2022-11-10T03:14:53.434Z,76.80
2022-11-10T03:17:19.769Z,76.48
2022-11-10T03:19:46.107Z,76.25
2022-11-10T03:22:12.454Z,76.31
2022-11-10T03:24:38.778Z,76.60
2022-11-10T03:27:05.137Z,76.79
2022-11-10T03:29:31.460Z,76.38
2022-11-10T03:31:57.893Z,76.25
2022-11-10T03:34:27.026Z,76.30
2022-11-10T03:36:50.505Z,76.46
2022-11-10T03:39:16.849Z,76.54
2022-11-10T03:41:43.186Z,76.46
2022-11-10T03:44:09.636Z,76.39
2022-11-10T03:46:35.960Z,76.15
2022-11-10T03:49:02.304Z,75.49
2022-11-10T03:51:28.614Z,75.60
2022-11-10T03:53:55.002Z,75.72
2022-11-10T03:56:21.342Z,76.03
2022-11-10T03:58:47.747Z,76.09
2022-11-10T04:01:17.614Z,76.48
2022-11-10T04:03:54.045Z,76.36
2022-11-10T04:06:11.407Z,76.87
2022-11-10T04:08:37.790Z,77.20
2022-11-10T04:11:04.188Z,77.04
2022-11-10T04:13:30.576Z,77.39
2022-11-10T04:15:56.924Z,77.66
2022-11-10T04:18:23.294Z,77.65
2022-11-10T04:20:49.650Z,77.59
2022-11-10T04:23:16.012Z,77.67
2022-11-10T04:25:42.350Z,77.75
2022-11-10T04:28:08.692Z,77.91
2022-11-10T04:30:35.076Z,77.60
2022-11-10T04:33:01.411Z,77.62
2022-11-10T04:35:27.750Z,77.58
2022-11-10T04:37:54.173Z,77.84
2022-11-10T04:40:20.936Z,77.77
2022-11-10T04:42:47.216Z,77.61
2022-11-10T04:45:13.553Z,77.65
2022-11-10T04:47:39.870Z,77.20
2022-11-10T04:50:06.197Z,76.96
2022-11-10T04:52:32.540Z,77.04
2022-11-10T04:54:58.913Z,76.63
2022-11-10T04:57:25.246Z,76.00
2022-11-10T04:59:51.572Z,75.27
2022-11-10T05:02:17.914Z,75.03
2022-11-10T05:04:44.258Z,75.73
2022-11-10T05:07:10.616Z,76.03
2022-11-10T05:09:36.896Z,75.96
2022-11-10T05:12:03.215Z,75.79
2022-11-10T05:14:29.557Z,75.82
2022-11-10T05:16:55.946Z,76.05
2022-11-10T05:19:22.267Z,76.08
2022-11-10T05:21:48.612Z,76.12
2022-11-10T05:24:14.939Z,76.20
2022-11-10T05:26:41.271Z,76.47
2022-11-10T05:29:08.232Z,76.67
2022-11-10T05:31:34.530Z,76.55
2022-11-10T05:34:00.848Z,76.43
2022-11-10T05:36:27.217Z,76.52
2022-11-10T05:38:53.558Z,76.81
2022-11-10T05:41:19.932Z,76.57
2022-11-10T05:43:46.222Z,76.21
2022-11-10T05:46:12.555Z,76.27
2022-11-10T05:48:38.936Z,76.56
2022-11-10T05:51:05.276Z,75.91
2022-11-10T05:53:31.603Z,75.68
2022-11-10T05:55:57.936Z,75.52
2022-11-10T05:58:24.351Z,75.74
2022-11-10T06:00:50.695Z,75.24
2022-11-10T06:03:17.069Z,75.15
2022-11-10T06:05:43.362Z,75.37
2022-11-10T06:08:09.687Z,75.62
2022-11-10T06:10:36.074Z,75.62
2022-11-10T06:13:02.413Z,75.53
2022-11-10T06:15:28.762Z,75.78
2022-11-10T06:17:55.106Z,75.76
2022-11-10T06:20:21.415Z,76.17
2022-11-10T06:22:47.766Z,76.60
2022-11-10T06:25:14.129Z,77.09
2022-11-10T06:27:40.443Z,77.14
2022-11-10T06:30:06.768Z,77.39
2022-11-10T06:32:33.131Z,76.15
2022-11-10T06:35:00.811Z,75.20
2022-11-10T06:37:25.826Z,75.28
2022-11-10T06:39:52.150Z,75.42
2022-11-10T06:42:18.493Z,75.34
2022-11-10T06:44:44.845Z,75.13
2022-11-10T06:47:11.301Z,74.84
2022-11-10T06:49:37.623Z,75.52
2022-11-10T06:52:03.997Z,75.14
2022-11-10T06:54:30.314Z,75.12
2022-11-10T06:56:56.640Z,74.88
2022-11-10T06:59:22.987Z,74.82
2022-11-10T07:01:49.329Z,75.06
2022-11-10T07:04:20.340Z,75.02
2022-11-10T07:06:42.015Z,74.81
2022-11-10T07:09:08.310Z,74.71
2022-11-10T07:11:34.687Z,74.65
2022-11-10T07:14:01.027Z,74.17
2022-11-10T07:16:27.350Z,73.94
2022-11-10T07:18:53.796Z,73.62
2022-11-10T07:21:20.125Z,73.35
2022-11-10T07:23:46.516Z,73.28
2022-11-10T07:26:12.869Z,73.32
2022-11-10T07:28:39.193Z,73.37
2022-11-10T07:31:05.517Z,72.99
2022-11-10T07:33:31.862Z,72.83
2022-11-10T07:35:58.309Z,73.79
2022-11-10T07:38:24.688Z,74.32
2022-11-10T07:40:50.999Z,73.57
2022-11-10T07:43:17.323Z,72.17
2022-11-10T07:45:43.666Z,70.99
2022-11-10T07:48:09.988Z,70.58
2022-11-10T07:50:36.336Z,67.11
2022-11-10T07:53:02.677Z,66.73
2022-11-10T07:55:29.020Z,66.20
2022-11-10T07:57:55.366Z,64.82
2022-11-10T08:00:21.760Z,64.82
2022-11-10T08:02:48.093Z,64.10
2022-11-10T08:05:14.439Z,65.05
2022-11-10T08:07:40.891Z,63.76
2022-11-10T08:10:07.084Z,63.37
2022-11-10T08:12:33.900Z,62.89
2022-11-10T08:14:59.741Z,63.37
2022-11-10T08:17:26.118Z,63.66
2022-11-10T08:19:52.479Z,62.94
2022-11-10T08:22:18.815Z,63.40
2022-11-10T08:24:45.135Z,63.99
2022-11-10T08:27:11.461Z,63.67
2022-11-10T08:29:37.809Z,63.41
2022-11-10T08:32:04.134Z,61.84
2022-11-10T08:34:30.482Z,62.56
2022-11-10T08:36:56.798Z,62.97
2022-11-10T08:39:38.050Z,62.48
2022-11-10T08:41:49.503Z,61.66
2022-11-10T08:44:20.700Z,61.53
2022-11-10T08:46:42.181Z,61.24
2022-11-10T08:49:08.520Z,61.28
2022-11-10T08:51:38.880Z,61.07
2022-11-10T08:54:01.161Z,60.67
2022-11-10T08:56:27.504Z,59.24
2022-11-10T08:58:53.856Z,58.86
2022-11-10T09:01:20.241Z,59.59
2022-11-10T09:03:46.580Z,58.79
2022-11-10T09:06:12.931Z,59.02
2022-11-10T09:08:39.274Z,58.04
2022-11-10T09:11:05.638Z,57.82
2022-11-10T09:13:32.337Z,57.68
2022-11-10T09:15:58.430Z,57.30
2022-11-10T09:18:24.762Z,56.77
2022-11-10T09:20:51.116Z,55.99
2022-11-10T09:23:17.470Z,55.68
2022-11-10T09:25:43.868Z,55.19
2022-11-10T09:28:10.195Z,55.89
2022-11-10T09:30:36.509Z,54.52
2022-11-10T09:33:02.860Z,54.37
2022-11-10T09:35:29.208Z,53.30
2022-11-10T09:37:55.551Z,53.97
2022-11-10T09:40:21.949Z,53.46
2022-11-10T09:42:48.396Z,53.60
2022-11-10T09:45:14.825Z,53.94
2022-11-10T09:47:58.120Z,53.97
2022-11-10T09:50:07.446Z,53.22
2022-11-10T09:52:33.848Z,52.47
2022-11-10T09:55:00.192Z,52.25
2022-11-10T09:57:26.552Z,52.53
2022-11-10T09:59:52.887Z,50.95
2022-11-10T10:02:19.228Z,51.10
2022-11-10T10:04:51.742Z,51.61
2022-11-10T10:07:12.199Z,50.91
2022-11-10T10:09:38.234Z,50.01
2022-11-10T10:12:04.598Z,49.79
2022-11-10T10:14:30.946Z,49.47
2022-11-10T10:16:57.300Z,49.48
2022-11-10T10:19:23.625Z,47.25
2022-11-10T10:21:49.954Z,47.51
2022-11-10T10:24:21.546Z,47.35
2022-11-10T10:26:42.667Z,47.74
2022-11-10T10:29:08.989Z,48.04
2022-11-10T10:31:35.314Z,47.68
2022-11-10T10:34:01.763Z,47.13
2022-11-10T10:36:28.083Z,46.88
2022-11-10T10:38:54.460Z,47.46
2022-11-10T10:41:23.838Z,48.19
2022-11-10T10:43:47.197Z,48.21
2022-11-10T10:46:13.514Z,46.03
2022-11-10T10:48:39.905Z,45.60
2022-11-10T10:51:06.222Z,46.24
2022-11-10T10:53:32.542Z,46.31
2022-11-10T10:55:58.872Z,44.99
2022-11-10T10:58:25.832Z,44.61
2022-11-10T11:00:51.570Z,44.45
2022-11-10T11:03:17.921Z,44.07
2022-11-10T11:05:44.240Z,44.55
2022-11-10T11:08:10.571Z,44.96
2022-11-10T11:10:36.917Z,44.30
2022-11-10T11:13:03.271Z,44.19
2022-11-10T11:15:29.620Z,44.67
2022-11-10T11:17:55.960Z,44.23
2022-11-10T11:20:24.377Z,43.47
2022-11-10T11:22:48.634Z,43.41
2022-11-10T11:25:15.019Z,42.95
2022-11-10T11:27:41.429Z,43.59
2022-11-10T11:30:07.716Z,43.79
2022-11-10T11:32:34.064Z,42.53
2022-11-10T11:35:00.390Z,43.48
2022-11-10T11:37:26.727Z,42.72
2022-11-10T11:39:53.050Z,41.92
2022-11-10T11:42:19.370Z,41.97
2022-11-10T11:44:45.732Z,41.95
2022-11-10T11:47:12.071Z,42.22
2022-11-10T11:49:38.474Z,41.91
2022-11-10T11:52:04.806Z,41.84
2022-11-10T11:54:31.148Z,42.47
2022-11-10T11:56:57.515Z,42.99
2022-11-10T11:59:23.840Z,42.66
2022-11-10T12:01:50.187Z,42.01
2022-11-10T12:04:16.588Z,42.09
2022-11-10T12:06:42.974Z,41.83
2022-11-10T12:09:09.324Z,41.61
2022-11-10T12:11:35.662Z,40.70
2022-11-10T12:14:01.985Z,41.30
2022-11-10T12:16:28.311Z,41.89
2022-11-10T12:18:54.651Z,41.83
2022-11-10T12:21:20.971Z,41.22
2022-11-10T12:23:47.332Z,42.40
2022-11-10T12:26:13.682Z,42.54
2022-11-10T12:28:40.069Z,41.99
2022-11-10T12:31:06.376Z,41.46
2022-11-10T12:33:32.716Z,40.73
2022-11-10T12:35:59.061Z,41.54
2022-11-10T12:38:25.651Z,40.94
2022-11-10T12:40:51.731Z,40.79
2022-11-10T12:43:18.071Z,40.80
2022-11-10T12:45:44.444Z,40.25
2022-11-10T12:48:10.773Z,41.00
2022-11-10T12:50:37.111Z,41.66
2022-11-10T12:53:03.461Z,41.33
2022-11-10T12:55:29.773Z,41.46
2022-11-10T12:57:56.120Z,41.13
2022-11-10T13:00:27.392Z,41.71
2022-11-10T13:02:48.818Z,41.88
2022-11-10T13:05:15.170Z,41.88
2022-11-10T13:07:41.481Z,41.85
2022-11-10T13:10:07.831Z,41.85
2022-11-10T13:12:34.164Z,41.76
2022-11-10T13:15:00.497Z,41.88
2022-11-10T13:17:26.880Z,41.99
2022-11-10T13:19:53.216Z,41.85
2022-11-10T13:22:22.940Z,41.82
2022-11-10T13:24:45.952Z,42.87
2022-11-10T13:27:12.255Z,43.25
2022-11-10T13:29:38.605Z,43.71
2022-11-10T13:32:04.940Z,44.67
2022-11-10T13:34:31.262Z,45.33
2022-11-10T13:36:57.627Z,45.67
2022-11-10T13:39:23.949Z,46.47
2022-11-10T13:41:50.303Z,46.60
2022-11-10T13:44:16.646Z,46.81
2022-11-10T13:46:42.979Z,47.62
2022-11-10T13:49:14.249Z,48.40
2022-11-10T13:51:35.649Z,48.65
2022-11-10T13:54:01.997Z,48.56
2022-11-10T13:56:28.320Z,48.70
2022-11-10T13:58:54.670Z,48.57
2022-11-10T14:01:20.990Z,49.00
2022-11-10T14:03:47.421Z,48.98
2022-11-10T14:06:13.682Z,49.04
2022-11-10T14:08:40.009Z,49.46
2022-11-10T14:11:06.354Z,49.87
2022-11-10T14:13:32.726Z,50.18
2022-11-10T14:15:59.081Z,50.35
2022-11-10T14:18:25.816Z,50.42
2022-11-10T14:20:51.753Z,50.68
2022-11-10T14:23:18.116Z,50.66
2022-11-10T14:25:44.422Z,51.14
2022-11-10T14:28:10.771Z,51.55
2022-11-10T14:30:37.124Z,52.17
2022-11-10T14:33:03.455Z,52.44
2022-11-10T14:35:29.822Z,52.66
2022-11-10T14:37:56.131Z,53.05
2022-11-10T14:40:22.460Z,53.27
2022-11-10T14:42:48.832Z,53.74
2022-11-10T14:45:15.177Z,54.03
2022-11-10T14:47:41.513Z,54.36
2022-11-10T14:50:07.842Z,54.68
2022-11-10T14:52:34.156Z,55.07
2022-11-10T14:55:00.496Z,55.17
2022-11-10T14:57:26.847Z,55.39
2022-11-10T14:59:53.178Z,55.72
2022-11-10T15:02:19.508Z,56.00
2022-11-10T15:04:46.363Z,56.28
2022-11-10T15:07:12.202Z,56.49
2022-11-10T15:09:39.658Z,56.90
2022-11-10T15:12:06.077Z,57.14
2022-11-10T15:14:31.147Z,57.16
2022-11-10T15:16:57.462Z,57.23
2022-11-10T15:19:23.800Z,57.44
2022-11-10T15:21:50.111Z,57.78
2022-11-10T15:24:16.418Z,58.06
2022-11-10T15:26:42.735Z,58.05
2022-11-10T15:29:09.043Z,58.48
2022-11-10T15:31:35.359Z,58.67
2022-11-10T15:34:01.672Z,58.90
2022-11-10T15:36:28.015Z,60.51
2022-11-10T15:38:54.312Z,60.18
2022-11-10T15:41:25.629Z,59.91
2022-11-10T15:43:46.961Z,59.69
2022-11-10T15:46:17.905Z,60.15
2022-11-10T15:48:39.639Z,60.19
2022-11-10T15:51:05.953Z,60.70
2022-11-10T15:53:32.315Z,60.79
2022-11-10T15:55:58.625Z,60.96
2022-11-10T15:58:25.287Z,61.67
2022-11-10T16:00:52.358Z,62.26
2022-11-10T16:03:18.682Z,62.01
2022-11-10T16:05:45.010Z,62.35
2022-11-10T16:08:11.322Z,62.51
2022-11-10T16:10:37.661Z,63.09
2022-11-10T16:13:03.976Z,62.30
2022-11-10T16:15:30.311Z,62.69
2022-11-10T16:17:56.614Z,63.06
2022-11-10T16:20:22.940Z,63.43
2022-11-10T16:22:49.245Z,63.35
2022-11-10T16:25:22.623Z,63.47
2022-11-10T16:27:42.981Z,63.59
2022-11-10T16:30:09.315Z,63.66
2022-11-10T16:32:35.640Z,63.79
2022-11-10T16:35:01.950Z,63.99
2022-11-10T16:37:30.688Z,64.35
2022-11-10T16:39:54.595Z,64.26
2022-11-10T16:42:20.904Z,64.28
2022-11-10T16:44:47.271Z,64.08
2022-11-10T16:47:13.564Z,64.02
2022-11-10T16:49:39.935Z,64.06
2022-11-10T16:52:06.244Z,64.29
2022-11-10T16:54:32.576Z,64.30
2022-11-10T16:56:58.886Z,64.41
2022-11-10T16:59:25.199Z,64.41
2022-11-10T17:01:51.595Z,64.43
2022-11-10T17:04:17.858Z,64.40
2022-11-10T17:06:44.258Z,64.63
2022-11-10T17:09:10.499Z,64.85
2022-11-10T17:11:36.871Z,64.94
2022-11-10T17:14:03.233Z,64.87
2022-11-10T17:16:29.531Z,64.82
2022-11-10T17:18:55.842Z,64.73
2022-11-10T17:21:22.155Z,65.20
2022-11-10T17:23:48.545Z,65.13
2022-11-10T17:26:14.869Z,65.62
2022-11-10T17:28:41.152Z,65.96
2022-11-10T17:31:07.478Z,66.24
2022-11-10T17:33:33.788Z,66.58
2022-11-10T17:36:00.183Z,66.78
2022-11-10T17:38:26.506Z,67.07
2022-11-10T17:40:52.812Z,67.70
2022-11-10T17:43:19.193Z,66.84
2022-11-10T17:45:45.591Z,67.57
2022-11-10T17:48:12.441Z,68.18
2022-11-10T17:50:39.196Z,67.60
2022-11-10T17:53:05.566Z,67.55
2022-11-10T17:55:34.501Z,67.74
2022-11-10T17:57:58.249Z,67.31
2022-11-10T18:00:24.578Z,67.29
2022-11-10T18:02:55.068Z,67.37
2022-11-10T18:05:17.244Z,67.44
2022-11-10T18:07:43.661Z,67.32
2022-11-10T18:10:09.924Z,67.36
2022-11-10T18:12:36.279Z,67.15
2022-11-10T18:15:02.589Z,67.48
2022-11-10T18:17:28.926Z,68.15
2022-11-10T18:19:55.362Z,68.53
2022-11-10T18:22:21.604Z,68.70
2022-11-10T18:24:47.936Z,68.77
2022-11-10T18:27:14.535Z,69.17
2022-11-10T18:29:40.944Z,69.48
2022-11-10T18:32:07.572Z,69.75
2022-11-10T18:34:33.852Z,69.85
2022-11-10T18:37:00.188Z,70.02
2022-11-10T18:39:26.560Z,70.46
2022-11-10T18:41:52.869Z,70.89
2022-11-10T18:44:19.201Z,71.90
2022-11-10T18:46:45.536Z,72.26
2022-11-10T18:49:11.868Z,72.54
2022-11-10T18:51:38.201Z,72.53
2022-11-10T18:54:04.559Z,72.83
2022-11-10T18:56:30.873Z,73.03
2022-11-10T18:58:57.233Z,73.32
2022-11-10T19:01:23.725Z,73.33
2022-11-10T19:03:49.896Z,72.95
2022-11-10T19:06:16.207Z,72.95
2022-11-10T19:08:42.524Z,73.13
2022-11-10T19:11:08.838Z,72.81
2022-11-10T19:13:35.196Z,72.80
2022-11-10T19:16:01.534Z,72.92
2022-11-10T19:18:27.882Z,72.90
2022-11-10T19:20:54.200Z,72.88
2022-11-10T19:23:20.925Z,72.83
2022-11-10T19:25:46.842Z,73.13
2022-11-10T19:28:13.179Z,72.98
2022-11-10T19:30:39.493Z,72.80
2022-11-10T19:33:05.804Z,72.86
2022-11-10T19:35:32.162Z,72.61
2022-11-10T19:37:58.486Z,72.82
2022-11-10T19:40:24.846Z,73.34
2022-11-10T19:42:51.181Z,73.45
2022-11-10T19:45:17.501Z,73.60
2022-11-10T19:47:43.856Z,73.58
2022-11-10T19:50:10.176Z,74.25
2022-11-10T19:52:36.521Z,75.09
2022-11-10T19:55:02.865Z,75.28
2022-11-10T19:57:29.179Z,75.34
2022-11-10T19:59:55.524Z,74.94
2022-11-10T20:02:21.944Z,74.35
2022-11-10T20:04:48.270Z,74.57
2022-11-10T20:07:14.668Z,75.11
2022-11-10T20:09:40.953Z,74.79
2022-11-10T20:12:07.270Z,74.22
2022-11-10T20:14:33.606Z,74.20
2022-11-10T20:16:59.970Z,74.29
2022-11-10T20:19:26.297Z,73.81
2022-11-10T20:21:52.639Z,74.24
2022-11-10T20:24:19.009Z,74.15
2022-11-10T20:26:45.327Z,74.19
2022-11-10T20:29:11.662Z,73.55
2022-11-10T20:31:38.015Z,73.53
2022-11-10T20:34:04.357Z,73.71
2022-11-10T20:36:30.702Z,73.76
2022-11-10T20:38:57.080Z,73.93
2022-11-10T20:41:23.411Z,74.12
2022-11-10T20:43:49.759Z,74.24
2022-11-10T20:46:33.190Z,74.12
2022-11-10T20:48:42.443Z,74.06
2022-11-10T20:51:08.777Z,74.44
2022-11-10T20:53:35.121Z,74.76
2022-11-10T20:56:01.463Z,74.81
2022-11-10T20:58:27.817Z,74.55
2022-11-10T21:00:54.166Z,74.44
2022-11-10T21:03:20.736Z,74.20
2022-11-10T21:05:46.864Z,74.08
2022-11-10T21:08:13.421Z,74.04
2022-11-10T21:10:39.751Z,74.14
2022-11-10T21:13:06.077Z,73.97
2022-11-10T21:15:32.420Z,73.83
2022-11-10T21:17:58.785Z,73.66
2022-11-10T21:20:25.144Z,73.19
2022-11-10T21:22:51.493Z,72.92
2022-11-10T21:25:17.832Z,73.20
2022-11-10T21:27:44.158Z,73.22
2022-11-10T21:30:14.222Z,73.48
2022-11-10T21:32:36.841Z,73.43
2022-11-10T21:35:03.206Z,73.92
2022-11-10T21:37:29.525Z,74.22
2022-11-10T21:39:55.849Z,74.05
2022-11-10T21:42:22.196Z,74.15
2022-11-10T21:44:48.533Z,74.26
2022-11-10T21:47:14.863Z,74.37
2022-11-10T21:49:41.190Z,74.41
2022-11-10T21:52:07.513Z,74.11
2022-11-10T21:54:33.828Z,73.32
2022-11-10T21:57:00.205Z,73.22
2022-11-10T21:59:26.554Z,73.46
2022-11-10T22:01:52.903Z,73.75
2022-11-10T22:04:19.280Z,74.29
2022-11-10T22:06:45.625Z,74.25
2022-11-10T22:09:11.965Z,74.23
2022-11-10T22:11:38.374Z,74.02
2022-11-10T22:14:04.679Z,73.97
2022-11-10T22:16:31.047Z,73.71
2022-11-10T22:18:57.364Z,73.85
2022-11-10T22:21:23.743Z,74.22
2022-11-10T22:23:50.084Z,74.23
2022-11-10T22:26:16.406Z,74.15
2022-11-10T22:28:42.755Z,74.30
2022-11-10T22:31:09.108Z,74.65
2022-11-10T22:33:35.426Z,74.78
2022-11-10T22:36:01.803Z,75.12
2022-11-10T22:38:28.127Z,74.98
2022-11-10T22:40:54.501Z,74.67
2022-11-10T22:43:21.127Z,75.01
2022-11-10T22:45:47.196Z,74.74
2022-11-10T22:48:13.543Z,74.64
2022-11-10T22:50:39.931Z,74.88
2022-11-10T22:53:06.275Z,75.27
2022-11-10T22:55:32.598Z,75.32
2022-11-10T22:57:58.941Z,75.49
2022-11-10T23:00:25.323Z,75.96
2022-11-10T23:02:51.644Z,76.36
2022-11-10T23:05:17.995Z,76.17
2022-11-10T23:07:44.333Z,75.69
2022-11-10T23:10:10.693Z,75.58
2022-11-10T23:12:37.010Z,75.82
2022-11-10T23:15:03.337Z,75.81
2022-11-10T23:17:29.695Z,75.98
2022-11-10T23:19:56.023Z,75.88
2022-11-10T23:22:22.363Z,75.80
2022-11-10T23:24:52.913Z,75.93
2022-11-10T23:27:15.014Z,76.14
2022-11-10T23:29:41.396Z,76.03
2022-11-10T23:32:07.717Z,75.97
2022-11-10T23:34:34.043Z,75.63
2022-11-10T23:37:00.362Z,75.71
2022-11-10T23:39:26.709Z,76.14
2022-11-10T23:41:53.082Z,76.20
2022-11-10T23:44:19.409Z,75.75
2022-11-10T23:46:45.727Z,75.82
2022-11-10T23:49:14.265Z,75.70
2022-11-10T23:51:40.607Z,75.50
2022-11-10T23:54:06.929Z,75.47
2022-11-10T23:56:33.367Z,76.12
2022-11-10T23:58:59.653Z,76.08
